• Join FlightAware (Why Join?)
  • Login
  • US Flag 
Gobble Gobble! 
12:26AM EST


 

Airport Tracker/Info


-or-


 

Live Flight TrackerFlight Track Log ✈ TAM3893 ✈ 23-Jun-2013 ✈ SBRF / REC - SBAR / AJU

Flight Track Log - Related Links

Times and Time Zones

All times are in EDT time to prevent confusion due to time zone crossing. See the TAM3893 flight status page for this flight to view local times or setup timezone preferences in your user account.

Time Position Orientation Groundspeed Altitude Reporting Facility
EDT Latitude Longitude Course Direction KTS MPH feet Rate Location/Type
02:02PM -9.9381 -36.2789 216° Southwest  Level Estimated
02:03PM -9.9857 -36.3148 217° Southwest  Level Estimated
02:04PM -10.0333 -36.3507 217° Southwest  Level Estimated
02:05PM -10.0809 -36.3865 217° Southwest  Level Estimated
02:06PM -10.1285 -36.4224 217° Southwest  Level Estimated
02:07PM -10.1761 -36.4584 217° Southwest  Level Estimated
02:08PM -10.2236 -36.4943 217° Southwest  Level Estimated
02:09PM -10.2712 -36.5302 217° Southwest  Level Estimated
02:10PM -10.3188 -36.5662 217° Southwest  Level Estimated
02:11PM -10.3664 -36.6021 217° Southwest  Level Estimated
02:12PM -10.4139 -36.6381 217° Southwest  Level Estimated
02:13PM -10.4615 -36.6741 217° Southwest  Level Estimated
02:14PM -10.5090 -36.7101 217° Southwest  Level Estimated
02:15PM -10.5566 -36.7461 217° Southwest  Level Estimated
02:16PM -10.6041 -36.7821 217° Southwest  Level Estimated
02:17PM -10.6517 -36.8181 217° Southwest  Level Estimated
02:18PM -10.6992 -36.8541 217° Southwest  Level Estimated
02:19PM -10.7467 -36.8902 217° Southwest  Level Estimated
02:20PM -10.7943 -36.9262 217° Southwest  Level Estimated
02:21PM -10.8418 -36.9623 217° Southwest  Level Estimated
02:22PM -10.8893 -36.9984 217° Southwest  Level Estimated
02:23PM -10.9368 -37.0345 217° Southwest  Level Estimated
02:24PM -10.9840 -37.0703 217° Southwest  Level Estimated
02:25PM -10.9840 -37.0703 270° West  Level Estimated
02:26PM -10.9840 -37.0703 270° West  Level Estimated
02:27PM -10.9840 -37.0703 270° West  Level Estimated
02:28PM -10.9840 -37.0703 270° West  Level Estimated
02:29PM -10.9840 -37.0703 270° West  Level Estimated
02:30PM -10.9840 -37.0703 270° West  Level Estimated
02:31PM -10.9840 -37.0703 270° West  Level Estimated
02:32PM -10.9840 -37.0703 270° West  Level Estimated
02:33PM -10.9840 -37.0703 270° West  Level Estimated
02:34PM -10.9840 -37.0703 270° West  Level Estimated
02:35PM -10.9840 -37.0703 270° West  Level Estimated
02:36PM -10.9840 -37.0703 270° West  Level Estimated
02:37PM -10.9840 -37.0703 270° West  Level Estimated
02:38PM -10.9840 -37.0703 270° West  Level Estimated
02:39PM -10.9840 -37.0703 270° West  Level Estimated
02:40PM -10.9840 -37.0703 270° West  Level Estimated